Biloxi, MS

7:43 PM CDT on July 27, 2017 (GMT -0500)
Forest Cove | | Change Station
Active Advisory: Flood Warning

Elev 38 ft 30.44 °N, 88.90 °W | Updated 7 seconds ago

Scattered Clouds
Scattered Clouds
87.3 °F
Feels Like 95 °F
N
3.0
Wind Variable Wind from SW

Today
High -- | Low -- °F
--% Chance of Precip.
Yesterday
High -- | Low -- °F
Precip. -- in
Pressure 29.95 in
Visibility 10.0 miles
Clouds Scattered Clouds 5000 ft
Heat Index 95 °F
Dew Point 73 °F
Humidity 63%
Rainfall 0.00 in
Snow Depth Not available.
6:11 AM 7:52 PM
Waxing Crescent, 25% visible
METAR KBIX 272358Z AUTO 20006KT 10SM SCT050 31/25 A2994 RMK AO2 SLP141 T03140251 10348 20309 56008
Pressure 29.95 in
Visibility 10.0 miles
Clouds Scattered Clouds 5000 ft
Heat Index 95 °F
Dew Point 73 °F
Humidity 63%
Rainfall 0.00 in
Snow Depth Not available.
6:11 AM 7:52 PM
Waxing Crescent, 25% visible
METAR KBIX 272358Z AUTO 20006KT 10SM SCT050 31/25 A2994 RMK AO2 SLP141 T03140251 10348 20309 56008

Get Your Daily Forecast Email!

Thanks for signing up!

Be on the lookout for a verification email in your inbox.

You'll start receiving severe weather alerts in your inbox..

×

10-Day Weather Forecast

Almanac

Astronomy

Jul. 27, 2017 Rise Set
Actual Time
Civil Twilight
Nautical Twilight
Astronomical Twilight
Moon
Length of Visible Light
Length of Day
Tomorrow will be .
, % of the Moon is Illuminated

Today's Extremes

State Highs State Lows

Community

WunderPhotos

Category 6

Welcome to Category 6. This is the collective home for Weather Underground's featured writeups by Dr. Jeff Masters (right), Bob Henson (left), Chris Burt, and other regular contributors.

Nearby

Air Quality

  Air Quality AQ Index Pollutant
Not available.

Snow Depth

Station Depth Elevation

Earthquake Activity

City Distance Mag. Time & Date
Minimum magnitude displayed is 2.5.

Coastal Water Temperatures

Place Temperature

Stations

Nearby Weather Stations

Station Location Temp. Windchill Dew Point Humidity Wind Precip. Elev Updated Type
                   

Watches & Warnings

Flood Warning
Issued: 9:37 AM CDT Jul. 27, 2017 – National Weather Service

The Flood Warning continues for
the Wolf River above Gulfport.
* Until Friday morning.
* At 8:45 am Thursday the stage was 9.5 feet.
* Minor flooding is occurring and minor flooding is forecast.
* Flood stage is 8.0 feet.
* Forecast... the river will continue to fall to below flood stage by
early tomorrow.
* Impact... at 9.0 feet... Bells Ferry Road will be impassable with deep
water on the east bridge approach.
* Impact... at 8.0 feet... Bells Ferry Road will begin to flood. There
will be water over the access Road just upstream of the bridge.


Lat... Lon 3042 8919 3041 8922 3037 8922 3039 8917